Memphis, Nebraska
Current Conditions -  °F | °C
As of 2:55 PM on Tuesday 21 Oct 2014 (Local Time) from KAHQ Reporting Station
Clear Clear  
Wind Chill: 77°   Ceiling: Unl
Heat Index: 77°   Visibility: 10mi
Dew Point: 39°   Wind: 8mph
Humidity: 26%   Direction: 170°S
Pressure: 30.03"   Gusts: NA
Location:  41.1°N, 96.43°W
Report Text: KAHQ 211955Z AUTO 17007KT 10SM CLR 25/04 A3003 RMK AO2 T02480038
Loading
Personal Weather Stations






























Interactive Weather Map
Tropical Storm Tracking
New forecast layout! Learn more

10-Day Weather Forecast

Advertisements
Track Severe Weather on mobile